createdAt,value
2024-04-30T00:00:48.321Z,12.16
2024-04-30T00:05:51.568Z,12.19
2024-04-30T00:10:53.626Z,12.24
2024-04-30T00:15:55.803Z,12.26
2024-04-30T00:20:58.761Z,12.06
2024-04-30T00:26:00.699Z,11.92
2024-04-30T00:31:04.317Z,11.89
2024-04-30T00:36:06.292Z,11.83
2024-04-30T00:41:08.270Z,11.76
2024-04-30T00:46:10.848Z,11.67
2024-04-30T00:51:13.869Z,11.70
2024-04-30T00:56:15.775Z,11.76
2024-04-30T01:01:18.295Z,11.72
2024-04-30T01:06:20.487Z,11.66
2024-04-30T01:11:22.472Z,11.68
2024-04-30T01:16:24.442Z,11.69
2024-04-30T01:21:26.391Z,11.59
2024-04-30T01:26:28.333Z,11.49
2024-04-30T01:31:30.444Z,11.44
2024-04-30T01:36:32.421Z,11.32
2024-04-30T01:41:34.382Z,11.34
2024-04-30T01:46:36.328Z,11.26
2024-04-30T01:51:38.267Z,11.22
2024-04-30T01:56:40.212Z,11.10
2024-04-30T02:01:42.190Z,11.09
2024-04-30T02:06:44.435Z,10.95
2024-04-30T02:11:46.471Z,10.90
2024-04-30T02:16:48.593Z,10.77
2024-04-30T02:21:50.590Z,10.69
2024-04-30T02:26:52.628Z,10.63
2024-04-30T02:32:30.157Z,10.51
2024-04-30T02:37:32.225Z,10.52
2024-04-30T02:42:34.226Z,10.52
2024-04-30T02:47:36.217Z,10.53
2024-04-30T02:52:38.266Z,10.47
2024-04-30T02:57:40.240Z,10.47
2024-04-30T03:02:42.174Z,10.47
2024-04-30T03:07:44.116Z,10.46
2024-04-30T03:12:49.477Z,10.42
2024-04-30T03:17:51.596Z,10.34
2024-04-30T03:22:53.740Z,10.24
2024-04-30T03:27:56.310Z,10.18
2024-04-30T03:32:59.188Z,10.09
2024-04-30T03:38:01.154Z,10.01
2024-04-30T03:43:03.103Z,10.01
2024-04-30T03:48:05.091Z,10.01
2024-04-30T03:53:07.088Z,10.05
2024-04-30T03:58:09.043Z,9.99
2024-04-30T04:03:11.193Z,9.91
2024-04-30T04:08:13.203Z,9.79
2024-04-30T04:13:33.889Z,9.81
2024-04-30T04:18:35.922Z,9.80
2024-04-30T04:23:37.904Z,9.84
2024-04-30T04:28:39.958Z,9.91
2024-04-30T04:33:41.926Z,10.02
2024-04-30T04:38:43.896Z,10.16
2024-04-30T04:43:45.903Z,10.30
2024-04-30T04:48:47.825Z,10.50
2024-04-30T04:53:49.754Z,10.71
2024-04-30T04:58:51.674Z,10.97
2024-04-30T05:03:53.728Z,11.30
2024-04-30T05:08:55.751Z,11.66
2024-04-30T05:13:57.680Z,11.87
2024-04-30T05:19:02.667Z,12.16
2024-04-30T05:24:04.728Z,12.39
2024-04-30T05:29:06.651Z,12.40
2024-04-30T05:34:08.648Z,12.42
2024-04-30T05:39:10.589Z,12.85
2024-04-30T05:44:12.747Z,14.77
2024-04-30T05:49:15.981Z,15.86
2024-04-30T05:54:17.977Z,17.03
2024-04-30T05:59:19.951Z,17.41
2024-04-30T06:04:22.027Z,18.30
2024-04-30T06:09:24.003Z,19.27
2024-04-30T06:14:25.955Z,19.26
2024-04-30T06:19:27.897Z,19.67
2024-04-30T06:24:29.945Z,19.52
2024-04-30T06:29:31.869Z,20.64
2024-04-30T06:34:33.855Z,21.48
2024-04-30T06:39:35.829Z,22.45
2024-04-30T06:44:37.751Z,22.62
2024-04-30T06:49:39.701Z,22.05
2024-04-30T06:54:41.639Z,23.07
2024-04-30T06:59:43.564Z,22.50
2024-04-30T07:04:45.753Z,23.74
2024-04-30T07:09:47.743Z,23.85
2024-04-30T07:14:49.674Z,23.29
2024-04-30T07:19:52.057Z,24.15
2024-04-30T07:24:54.285Z,24.04
2024-04-30T07:29:56.258Z,25.23
2024-04-30T07:34:58.336Z,23.91
2024-04-30T07:40:00.512Z,25.15
2024-04-30T07:45:02.591Z,25.87
2024-04-30T07:50:04.602Z,24.92
2024-04-30T07:55:06.753Z,25.86
2024-04-30T08:00:11.471Z,25.99
2024-04-30T08:05:13.408Z,24.68
2024-04-30T08:10:15.431Z,24.58
2024-04-30T08:15:17.518Z,24.37
2024-04-30T08:20:19.490Z,27.41
2024-04-30T08:25:21.464Z,26.07
2024-04-30T08:30:23.546Z,26.31
2024-04-30T08:35:25.850Z,28.45
2024-04-30T08:40:27.809Z,29.40
2024-04-30T08:45:30.496Z,27.52
2024-04-30T08:50:32.645Z,27.06
2024-04-30T08:55:35.935Z,27.93
2024-04-30T09:00:37.896Z,28.05
2024-04-30T09:05:40.964Z,28.22
2024-04-30T09:10:42.998Z,28.48
2024-04-30T09:15:44.958Z,28.28
2024-04-30T09:20:47.469Z,28.71
2024-04-30T09:25:49.445Z,25.54
2024-04-30T09:31:01.401Z,26.38
2024-04-30T09:36:08.623Z,27.78
2024-04-30T09:41:14.093Z,28.31
2024-04-30T09:46:16.327Z,26.85
2024-04-30T09:51:19.469Z,27.71
2024-04-30T09:56:22.229Z,28.22
2024-04-30T10:01:27.827Z,30.34
2024-04-30T10:06:30.956Z,29.01
2024-04-30T10:11:32.883Z,26.47
2024-04-30T10:16:34.904Z,28.14
2024-04-30T10:21:37.241Z,28.63
2024-04-30T10:26:46.478Z,28.06
2024-04-30T10:31:49.602Z,28.87
2024-04-30T10:36:52.575Z,28.10
2024-04-30T10:41:55.069Z,29.87
2024-04-30T10:46:57.691Z,29.23
2024-04-30T10:51:59.887Z,30.05
2024-04-30T10:57:01.811Z,29.96
2024-04-30T11:02:03.730Z,28.81
2024-04-30T11:07:05.759Z,29.89
2024-04-30T11:12:07.709Z,30.57
2024-04-30T11:17:11.787Z,28.96
2024-04-30T11:22:14.104Z,30.52
2024-04-30T11:27:16.042Z,30.34
2024-04-30T11:32:17.992Z,30.38
2024-04-30T11:37:20.616Z,31.00
2024-04-30T11:42:27.473Z,30.71
2024-04-30T11:47:36.044Z,31.84
2024-04-30T11:52:40.623Z,30.65
2024-04-30T11:57:42.733Z,29.85
2024-04-30T12:02:44.882Z,28.61
2024-04-30T12:07:47.109Z,29.11
2024-04-30T12:12:49.797Z,28.15
2024-04-30T12:17:51.847Z,27.73
2024-04-30T12:22:54.035Z,28.13
2024-04-30T12:27:55.950Z,27.75
2024-04-30T12:32:57.904Z,28.16
2024-04-30T12:38:00.633Z,28.08
2024-04-30T12:43:02.561Z,28.08
2024-04-30T12:48:04.722Z,28.19
2024-04-30T12:53:06.737Z,28.41
2024-04-30T12:58:09.023Z,27.86
2024-04-30T13:03:11.141Z,27.82
2024-04-30T13:08:13.148Z,27.68
2024-04-30T13:13:15.246Z,27.85
2024-04-30T13:18:17.195Z,27.78
2024-04-30T13:23:19.130Z,28.34
2024-04-30T13:28:21.128Z,28.25
2024-04-30T13:33:24.266Z,28.50
2024-04-30T13:38:26.638Z,28.08
2024-04-30T13:43:28.698Z,27.98
2024-04-30T13:48:30.798Z,28.17
2024-04-30T13:53:36.372Z,28.25
2024-04-30T13:58:38.323Z,27.77
2024-04-30T14:03:40.334Z,27.94
2024-04-30T14:08:42.764Z,27.94
2024-04-30T14:13:44.817Z,27.75
2024-04-30T14:18:46.846Z,27.60
2024-04-30T14:23:48.815Z,27.45
2024-04-30T14:28:50.789Z,27.21
2024-04-30T14:33:52.754Z,27.54
2024-04-30T14:38:54.732Z,27.48
2024-04-30T14:43:56.675Z,27.34
2024-04-30T14:48:58.683Z,27.09
2024-04-30T14:54:00.609Z,27.02
2024-04-30T14:59:02.650Z,26.53
2024-04-30T15:04:04.738Z,26.56
2024-04-30T15:09:12.486Z,26.51
2024-04-30T15:14:14.677Z,26.45
2024-04-30T15:19:16.614Z,26.26
2024-04-30T15:24:18.526Z,26.08
2024-04-30T15:29:20.445Z,26.05
2024-04-30T15:34:22.397Z,26.15
2024-04-30T15:39:25.664Z,26.18
2024-04-30T15:44:27.573Z,26.30
2024-04-30T15:49:29.604Z,26.26
2024-04-30T15:54:31.637Z,26.12
2024-04-30T15:59:35.364Z,25.89
2024-04-30T16:04:37.416Z,25.84
2024-04-30T16:09:39.494Z,25.79
2024-04-30T16:14:41.436Z,25.58
2024-04-30T16:19:43.679Z,25.44
2024-04-30T16:24:45.884Z,25.40
2024-04-30T16:29:48.332Z,25.29
2024-04-30T16:34:50.329Z,25.22
2024-04-30T16:39:52.311Z,25.19
2024-04-30T16:44:58.407Z,25.13
2024-04-30T16:50:01.201Z,24.98
2024-04-30T16:55:03.371Z,24.87
2024-04-30T17:00:11.547Z,24.73
2024-04-30T17:05:15.135Z,24.58
2024-04-30T17:10:17.187Z,24.38
2024-04-30T17:15:19.245Z,24.20
2024-04-30T17:20:21.198Z,23.97
2024-04-30T17:25:23.106Z,23.74
2024-04-30T17:30:25.055Z,23.58
2024-04-30T17:35:27.036Z,23.39
2024-04-30T17:40:28.981Z,23.27
2024-04-30T17:45:30.931Z,23.06
2024-04-30T17:50:32.864Z,22.91
2024-04-30T17:55:36.036Z,22.73
2024-04-30T18:00:38.035Z,22.42
2024-04-30T18:05:40.118Z,22.21
2024-04-30T18:10:49.417Z,21.74
2024-04-30T18:15:55.902Z,21.37
2024-04-30T18:20:57.878Z,21.16
2024-04-30T18:25:59.803Z,20.87
2024-04-30T18:31:01.782Z,20.44
2024-04-30T18:36:03.762Z,20.25
2024-04-30T18:41:16.763Z,19.97
2024-04-30T18:46:22.638Z,19.77
2024-04-30T18:51:26.327Z,19.56
2024-04-30T18:56:28.294Z,19.27
2024-04-30T19:01:30.361Z,19.06
2024-04-30T19:06:32.487Z,18.77
2024-04-30T19:11:34.577Z,18.42
2024-04-30T19:16:42.438Z,18.17
2024-04-30T19:21:45.505Z,17.97
2024-04-30T19:26:47.832Z,17.94
2024-04-30T19:31:49.770Z,17.74
2024-04-30T19:36:51.754Z,17.66
2024-04-30T19:41:53.697Z,17.54
2024-04-30T19:46:55.670Z,17.27
2024-04-30T19:51:57.686Z,16.80
2024-04-30T19:56:59.664Z,16.78
2024-04-30T20:02:01.598Z,16.67
2024-04-30T20:07:04.563Z,16.58
2024-04-30T20:12:06.544Z,16.49
2024-04-30T20:17:08.463Z,16.35
2024-04-30T20:22:10.429Z,16.14
2024-04-30T20:27:12.387Z,15.99
2024-04-30T20:32:14.388Z,15.85
2024-04-30T20:37:16.343Z,15.77
2024-04-30T20:42:20.693Z,15.69
2024-04-30T20:47:22.760Z,15.55
2024-04-30T20:52:24.816Z,15.43
2024-04-30T20:57:26.804Z,15.21
2024-04-30T21:02:28.940Z,14.98
2024-04-30T21:07:30.911Z,14.68
2024-04-30T21:12:33.033Z,14.66
2024-04-30T21:17:35.350Z,14.63
2024-04-30T21:22:37.397Z,14.55
2024-04-30T21:27:39.470Z,14.45
2024-04-30T21:32:41.496Z,14.20
2024-04-30T21:37:44.008Z,14.17
2024-04-30T21:42:45.986Z,14.12
2024-04-30T21:47:48.024Z,14.02
2024-04-30T21:52:50.007Z,13.95
2024-04-30T21:57:51.984Z,13.79
2024-04-30T22:03:00.154Z,13.72
2024-04-30T22:08:04.874Z,13.74
2024-04-30T22:13:06.831Z,13.58
2024-04-30T22:18:08.885Z,13.38
2024-04-30T22:23:10.859Z,13.36
2024-04-30T22:28:12.811Z,13.39
2024-04-30T22:33:14.953Z,13.42
2024-04-30T22:38:16.919Z,13.43
2024-04-30T22:43:18.847Z,13.38
2024-04-30T22:48:21.057Z,13.16
2024-04-30T22:53:23.112Z,13.07
2024-04-30T22:58:25.579Z,13.02
2024-04-30T23:03:27.988Z,12.96
2024-04-30T23:08:29.954Z,12.90
2024-04-30T23:13:31.883Z,12.86
2024-04-30T23:18:34.099Z,12.77
2024-04-30T23:23:36.121Z,12.72
2024-04-30T23:28:38.489Z,12.59
2024-04-30T23:33:40.508Z,12.41
2024-04-30T23:38:42.428Z,12.37
2024-04-30T23:43:44.407Z,12.26
2024-04-30T23:48:46.371Z,12.19
2024-04-30T23:53:48.483Z,12.10
2024-04-30T23:58:50.417Z,12.08
